Time;durP1;ratioP1;P1;durP2;ratioP2;P2;SDS_P1;SDS_P2;PMS_P1;PMS_P2;Temp;Humidity;BMP_temperature;BMP_pressure;BME280_temperature;BME280_humidity;BME280_pressure;Samples;Min_cycle;Max_cycle;Signal;HPM_P1;HPM_P2
2023/06/12 00:02:20;;;;;;;0.20;0.20;;;;;;;14.90;100.00;100307.89;106060;1250;72708;-86
2023/06/12 00:04:54;;;;;;;1.40;0.20;;;;;;;14.88;100.00;100309.77;105962;1254;62918;-86
2023/06/12 00:07:21;;;;;;;0.10;0.10;;;;;;;14.87;100.00;100305.31;105840;1251;60374;-86
2023/06/12 00:09:50;;;;;;;0.50;0.40;;;;;;;14.88;100.00;100302.60;105950;1251;73017;-87
2023/06/12 00:12:17;;;;;;;1.10;0.20;;;;;;;14.87;100.00;100301.13;106057;1251;62870;-84
2023/06/12 00:14:45;;;;;;;1.20;0.10;;;;;;;14.84;100.00;100300.98;105946;1250;71183;-87
2023/06/12 00:17:12;;;;;;;0.60;0.20;;;;;;;14.81;100.00;100301.91;106018;1254;62093;-85
2023/06/12 00:19:40;;;;;;;0.10;0.10;;;;;;;14.80;100.00;100301.02;105914;1254;60150;-86
2023/06/12 00:22:06;;;;;;;0.20;0.20;;;;;;;14.76;100.00;100298.84;105923;1253;72998;-85
2023/06/12 00:24:33;;;;;;;2.10;0.20;;;;;;;14.68;100.00;100297.92;106068;1253;63870;-86
2023/06/12 00:27:00;;;;;;;0.50;0.20;;;;;;;14.62;100.00;100295.03;106052;1251;71586;-85
2023/06/12 00:29:27;;;;;;;0.70;0.20;;;;;;;14.60;100.00;100290.65;106032;1254;62021;-84
2023/06/12 00:31:54;;;;;;;0.10;0.10;;;;;;;14.57;100.00;100286.11;105970;1250;60370;-84
2023/06/12 00:34:21;;;;;;;1.50;0.20;;;;;;;14.50;100.00;100284.88;105914;1256;71648;-85
2023/06/12 00:36:48;;;;;;;0.90;0.20;;;;;;;14.43;100.00;100280.90;106086;1250;63083;-85
2023/06/12 00:39:15;;;;;;;0.30;0.30;;;;;;;14.40;100.00;100278.92;106022;1251;71282;-87
2023/06/12 00:41:41;;;;;;;0.30;0.20;;;;;;;14.39;100.00;100278.78;105893;1256;61865;-87
2023/06/12 00:44:08;;;;;;;0.50;0.20;;;;;;;14.39;100.00;100277.70;106021;1250;60341;-84
2023/06/12 00:46:37;;;;;;;0.40;0.20;;;;;;;14.41;100.00;100278.85;105950;1254;71931;-86
2023/06/12 00:49:04;;;;;;;0.40;0.20;;;;;;;14.39;100.00;100279.80;105916;1256;63900;-86
2023/06/12 00:51:33;;;;;;;0.80;0.30;;;;;;;14.38;100.00;100271.13;105962;1250;72559;-85
2023/06/12 00:54:00;;;;;;;0.20;0.20;;;;;;;14.35;100.00;100273.33;106058;1254;62048;-85
2023/06/12 00:56:27;;;;;;;0.30;0.20;;;;;;;14.31;100.00;100273.28;105915;1250;60099;-86
2023/06/12 00:58:55;;;;;;;1.90;0.30;;;;;;;14.28;100.00;100267.04;105801;1251;73128;-85
2023/06/12 01:01:25;;;;;;;1.40;0.10;;;;;;;14.25;100.00;100269.02;105924;1250;62655;-86
2023/06/12 01:03:56;;;;;;;0.20;0.10;;;;;;;14.23;100.00;100262.86;105985;1254;72654;-89
2023/06/12 01:07:02;;;;;;;0.60;0.20;;;;;;;14.20;100.00;100264.14;105971;1254;60940;-86
2023/06/12 01:09:48;;;;;;;1.00;0.30;;;;;;;14.20;100.00;100257.99;105917;1250;61961;-85
2023/06/12 01:12:15;;;;;;;1.70;0.20;;;;;;;14.20;100.00;100256.94;105957;1250;73160;-86
2023/06/12 01:14:45;;;;;;;0.40;0.30;;;;;;;14.22;100.00;100255.60;106002;1254;63939;-85
2023/06/12 01:17:12;;;;;;;1.00;0.30;;;;;;;14.22;100.00;100254.83;105923;1250;72767;-84
2023/06/12 01:19:41;;;;;;;0.10;0.10;;;;;;;14.23;100.00;100261.46;105858;1255;62200;-84
2023/06/12 01:22:10;;;;;;;0.20;0.20;;;;;;;14.23;100.00;100265.16;106088;1251;60416;-87
2023/06/12 01:24:56;;;;;;;0.10;0.10;;;;;;;14.23;100.00;100262.66;106031;1254;74781;-88
2023/06/12 01:27:34;;;;;;;0.10;0.10;;;;;;;14.23;100.00;100263.00;106040;1254;64022;-85
2023/06/12 01:30:10;;;;;;;0.20;0.10;;;;;;;14.24;100.00;100259.60;105980;1250;72689;-85
2023/06/12 01:32:39;;;;;;;0.20;0.10;;;;;;;14.26;100.00;100263.30;105807;1250;60872;-85
2023/06/12 01:35:09;;;;;;;0.10;0.10;;;;;;;14.27;100.00;100260.73;105932;1256;60338;-86
2023/06/12 01:37:56;;;;;;;0.10;0.10;;;;;;;14.28;100.00;100261.19;105980;1256;72636;-84
2023/06/12 01:40:25;;;;;;;0.10;0.10;;;;;;;14.27;100.00;100254.79;105936;1255;63878;-86
2023/06/12 01:42:52;;;;;;;0.10;0.10;;;;;;;14.26;100.00;100257.14;106063;1251;72667;-88
2023/06/12 01:45:19;;;;;;;0.20;0.10;;;;;;;14.26;100.00;100253.81;106028;1255;61963;-85
2023/06/12 01:47:46;;;;;;;0.20;0.20;;;;;;;14.24;100.00;100252.54;105886;1251;60571;-86
2023/06/12 01:50:14;;;;;;;0.10;0.10;;;;;;;14.23;100.00;100254.54;106097;1250;72650;-86
2023/06/12 01:52:42;;;;;;;0.00;0.00;;;;;;;14.23;100.00;100253.39;105868;1256;63827;-84
2023/06/12 01:55:09;;;;;;;1.10;0.10;;;;;;;14.22;100.00;100255.57;106056;1251;70284;-84
2023/06/12 01:57:38;;;;;;;0.60;0.10;;;;;;;14.21;100.00;100253.86;106052;1250;61869;-90
2023/06/12 02:00:08;;;;;;;0.60;0.20;;;;;;;14.20;100.00;100258.51;106355;1250;60420;-86
2023/06/12 02:02:53;;;;;;;0.20;0.20;;;;;;;14.19;100.00;100264.74;105990;1254;73644;-85
2023/06/12 02:05:22;;;;;;;0.10;0.10;;;;;;;14.21;100.00;100263.86;105979;1254;62516;-86
2023/06/12 02:07:48;;;;;;;0.20;0.10;;;;;;;14.23;100.00;100266.73;105934;1250;71391;-88
2023/06/12 02:10:16;;;;;;;0.00;0.00;;;;;;;14.23;100.00;100265.67;106252;1254;61745;-84
2023/06/12 02:12:43;;;;;;;0.30;0.10;;;;;;;14.24;100.00;100265.25;106507;1250;60835;-85
2023/06/12 02:15:12;;;;;;;0.80;0.10;;;;;;;14.28;100.00;100269.82;106681;1255;73688;-84
2023/06/12 02:17:39;;;;;;;2.00;0.10;;;;;;;14.30;100.00;100267.38;106189;1251;62620;-87
2023/06/12 02:20:07;;;;;;;0.00;0.00;;;;;;;14.32;100.00;100267.21;106022;1253;70786;-86
2023/06/12 02:22:35;;;;;;;0.10;0.10;;;;;;;14.35;100.00;100269.28;106245;1250;61864;-89
2023/06/12 02:25:02;;;;;;;0.50;0.50;;;;;;;14.37;100.00;100271.34;105827;1251;60534;-87
2023/06/12 02:27:30;;;;;;;0.20;0.10;;;;;;;14.39;100.00;100272.64;105974;1254;73728;-88
2023/06/12 02:29:57;;;;;;;0.00;0.00;;;;;;;14.39;100.00;100275.30;106234;1250;62403;-85
2023/06/12 02:32:24;;;;;;;0.60;0.10;;;;;;;14.38;100.00;100274.29;109805;1250;71322;-85
2023/06/12 02:34:52;;;;;;;0.30;0.30;;;;;;;14.38;100.00;100277.10;109190;1250;60492;-85
2023/06/12 02:37:20;;;;;;;0.20;0.20;;;;;;;14.39;100.00;100276.02;108012;1250;60411;-84
2023/06/12 02:39:52;;;;;;;0.10;0.10;;;;;;;14.39;100.00;100275.98;107241;1251;73838;-86
2023/06/12 02:42:19;;;;;;;0.00;0.00;;;;;;;14.39;100.00;100278.44;106063;1250;63025;-85
2023/06/12 02:44:46;;;;;;;0.70;0.10;;;;;;;14.39;100.00;100278.46;106245;1250;71683;-85
2023/06/12 02:47:15;;;;;;;0.10;0.10;;;;;;;14.37;100.00;100279.81;106874;1251;60804;-85
2023/06/12 02:49:44;;;;;;;2.90;0.40;;;;;;;14.36;100.00;100281.36;108071;1250;60433;-82
2023/06/12 02:52:14;;;;;;;1.70;0.50;;;;;;;14.35;100.00;100282.27;109377;1250;72455;-81
2023/06/12 02:54:42;;;;;;;0.90;0.30;;;;;;;14.34;100.00;100280.82;109040;1257;63699;-87
2023/06/12 02:57:10;;;;;;;0.10;0.10;;;;;;;14.34;100.00;100280.46;106805;1250;72493;-89
2023/06/12 02:59:37;;;;;;;0.50;0.20;;;;;;;14.34;100.00;100285.73;106330;1251;60810;-87
2023/06/12 03:02:09;;;;;;;0.30;0.10;;;;;;;14.33;100.00;100284.05;106484;1250;60832;-85
2023/06/12 03:04:42;;;;;;;0.10;0.10;;;;;;;14.33;100.00;100281.72;105931;1256;72908;-88
2023/06/12 03:07:12;;;;;;;0.10;0.10;;;;;;;14.35;100.00;100280.49;105883;1256;63876;-87
2023/06/12 03:09:39;;;;;;;0.10;0.10;;;;;;;14.36;100.00;100288.04;106196;1250;71352;-85
2023/06/12 03:12:09;;;;;;;0.40;0.20;;;;;;;14.37;100.00;100291.64;105817;1253;60806;-85
2023/06/12 03:14:38;;;;;;;0.10;0.10;;;;;;;14.40;100.00;100295.61;106025;1250;60409;-88
2023/06/12 03:17:05;;;;;;;0.30;0.10;;;;;;;14.41;100.00;100295.83;106034;1256;73868;-89
2023/06/12 03:19:32;;;;;;;0.50;0.30;;;;;;;14.42;100.00;100291.94;105914;1255;63786;-89
2023/06/12 03:21:59;;;;;;;0.40;0.20;;;;;;;14.43;100.00;100293.05;106053;1250;72710;-86
2023/06/12 03:24:26;;;;;;;1.00;0.20;;;;;;;14.43;100.00;100293.05;105892;1256;61070;-88
2023/06/12 03:26:54;;;;;;;0.10;0.10;;;;;;;14.42;100.00;100293.88;106036;1250;60537;-88
2023/06/12 03:29:21;;;;;;;0.30;0.30;;;;;;;14.42;100.00;100296.11;106029;1250;73561;-86
2023/06/12 03:31:48;;;;;;;0.70;0.20;;;;;;;14.44;100.00;100291.21;106038;1256;63725;-87
2023/06/12 03:34:16;;;;;;;1.70;0.20;;;;;;;14.46;100.00;100292.27;105987;1250;72845;-86
2023/06/12 03:36:43;;;;;;;4.00;0.40;;;;;;;14.50;100.00;100294.76;106197;1253;62060;-86
2023/06/12 03:39:12;;;;;;;0.80;0.30;;;;;;;14.50;100.00;100294.02;106312;1254;60527;-86
2023/06/12 03:41:54;;;;;;;1.00;0.80;;;;;;;14.53;100.00;100296.84;106012;1255;73899;-88
2023/06/12 03:44:22;;;;;;;1.80;0.70;;;;;;;14.56;100.00;100299.96;106054;1251;63807;-86
2023/06/12 03:46:49;;;;;;;0.40;0.30;;;;;;;14.57;100.00;100300.55;106058;1256;72671;-90
2023/06/12 03:49:16;;;;;;;0.70;0.30;;;;;;;14.61;100.00;100299.91;106000;1250;60594;-86
2023/06/12 03:51:44;;;;;;;2.50;0.70;;;;;;;14.64;100.00;100298.08;106025;1255;60432;-87
2023/06/12 03:54:11;;;;;;;0.50;0.40;;;;;;;14.65;100.00;100301.13;106068;1250;73835;-88
2023/06/12 03:56:41;;;;;;;1.00;0.60;;;;;;;14.66;100.00;100300.33;105943;1250;62820;-86
2023/06/12 03:59:08;;;;;;;0.70;0.50;;;;;;;14.66;100.00;100298.59;105983;1250;72557;-90
2023/06/12 04:01:38;;;;;;;1.20;0.90;;;;;;;14.66;100.00;100301.60;105845;1250;62250;-86
2023/06/12 04:04:05;;;;;;;2.30;2.10;;;;;;;14.64;100.00;100304.74;105991;1250;60771;-89
2023/06/12 04:06:40;;;;;;;1.30;1.20;;;;;;;14.64;100.00;100310.36;105983;1256;74858;-87
2023/06/12 04:09:08;;;;;;;2.40;1.10;;;;;;;14.64;100.00;100312.16;105984;1255;63925;-88
2023/06/12 04:11:38;;;;;;;1.60;1.20;;;;;;;14.61;100.00;100313.42;106295;1250;71979;-91
2023/06/12 04:14:06;;;;;;;2.20;1.30;;;;;;;14.63;100.00;100316.65;105857;1256;61917;-86
2023/06/12 04:16:33;;;;;;;2.00;1.80;;;;;;;14.68;100.00;100313.70;106107;1250;60422;-84
2023/06/12 04:19:03;;;;;;;3.20;1.90;;;;;;;14.73;100.00;100316.02;106064;1256;73879;-87
2023/06/12 04:21:35;;;;;;;2.50;1.80;;;;;;;14.74;100.00;100318.02;106202;1256;63829;-87
2023/06/12 04:24:03;;;;;;;3.20;2.40;;;;;;;14.75;100.00;100319.90;106444;1255;72527;-85
2023/06/12 04:26:31;;;;;;;3.00;2.10;;;;;;;14.74;100.00;100319.77;106091;1256;61993;-87
2023/06/12 04:29:02;;;;;;;6.40;3.30;;;;;;;14.73;100.00;100319.48;106242;1250;60931;-88
2023/06/12 04:31:31;;;;;;;8.30;3.20;;;;;;;14.71;100.00;100322.95;106022;1251;73687;-86
2023/06/12 04:33:58;;;;;;;3.60;3.10;;;;;;;14.69;100.00;100320.81;106066;1255;62268;-85
2023/06/12 04:36:25;;;;;;;8.50;4.50;;;;;;;14.70;100.00;100321.35;106037;1255;72560;-87
2023/06/12 04:38:52;;;;;;;7.10;4.50;;;;;;;14.70;100.00;100320.59;106004;1250;62011;-86
2023/06/12 04:41:24;;;;;;;7.90;3.40;;;;;;;14.71;100.00;100325.11;106436;1250;60451;-87
2023/06/12 04:43:58;;;;;;;5.40;4.20;;;;;;;14.70;100.00;100322.33;106052;1251;73857;-86
2023/06/12 04:46:32;;;;;;;6.70;5.20;;;;;;;14.68;100.00;100325.18;106071;1251;62279;-86
2023/06/12 04:49:02;;;;;;;5.30;3.90;;;;;;;14.67;100.00;100324.02;105990;1250;72765;-89
2023/06/12 04:51:29;;;;;;;5.10;3.40;;;;;;;14.68;100.00;100329.92;106057;1254;60477;-86
2023/06/12 04:53:57;;;;;;;8.60;4.30;;;;;;;14.68;100.00;100332.34;105974;1256;60411;-89
2023/06/12 04:56:23;;;;;;;7.50;4.20;;;;;;;14.68;100.00;100326.04;105910;1256;72681;-88
2023/06/12 04:58:51;;;;;;;12.10;6.30;;;;;;;14.67;100.00;100333.33;105898;1256;64484;-87
2023/06/12 05:01:19;;;;;;;5.90;4.30;;;;;;;14.67;100.00;100338.94;105977;1250;72662;-86
2023/06/12 05:03:46;;;;;;;6.00;4.60;;;;;;;14.69;100.00;100338.32;106115;1256;61766;-86
2023/06/12 05:06:14;;;;;;;6.90;4.80;;;;;;;14.71;100.00;100341.15;106026;1256;60346;-86
2023/06/12 05:08:42;;;;;;;7.40;5.50;;;;;;;14.72;100.00;100341.91;106144;1250;73914;-88
2023/06/12 05:11:10;;;;;;;8.80;4.70;;;;;;;14.74;100.00;100341.98;106100;1256;64128;-86
2023/06/12 05:15:05;;;;;;;10.50;5.30;;;;;;;14.78;100.00;100342.01;104380;1290;600392;-85
2023/06/12 05:17:33;;;;;;;12.80;6.50;;;;;;;14.77;100.00;100338.75;105700;1266;62672;-86
2023/06/12 05:20:04;;;;;;;8.90;5.90;;;;;;;14.79;100.00;100338.54;105235;1264;60168;-89
2023/06/12 05:22:32;;;;;;;7.30;5.10;;;;;;;14.80;100.00;100344.48;104716;1264;72842;-88
2023/06/12 05:24:59;;;;;;;6.90;4.70;;;;;;;14.82;100.00;100342.71;105085;1266;62483;-84
2023/06/12 05:27:27;;;;;;;14.30;5.30;;;;;;;14.82;100.00;100345.13;105476;1270;73135;-87
2023/06/12 05:29:54;;;;;;;5.90;4.60;;;;;;;14.85;100.00;100344.77;108197;1262;640879;-85
2023/06/12 05:32:22;;;;;;;5.10;4.00;;;;;;;14.86;100.00;100345.34;108832;1261;59149;-87
2023/06/12 05:34:51;;;;;;;6.50;4.40;;;;;;;14.90;100.00;100344.63;107117;1263;70736;-86
2023/06/12 05:37:18;;;;;;;7.60;3.90;;;;;;;14.93;100.00;100345.67;107282;1261;62833;-86
2023/06/12 05:39:49;;;;;;;6.40;4.10;;;;;;;14.96;100.00;100350.17;105576;1263;71278;-86
2023/06/12 05:42:16;;;;;;;6.50;3.80;;;;;;;14.99;100.00;100345.35;105637;1264;62008;-85
2023/06/12 05:44:46;;;;;;;9.70;4.00;;;;;;;15.01;100.00;100349.27;106003;1256;59619;-87
2023/06/12 05:47:16;;;;;;;11.00;7.40;;;;;;;15.02;100.00;100348.77;106710;1251;73196;-89
2023/06/12 05:49:44;;;;;;;4.10;3.10;;;;;;;15.05;100.00;100346.59;105987;1256;62837;-91
2023/06/12 05:52:12;;;;;;;9.00;4.80;;;;;;;15.07;100.00;100348.75;106035;1256;72843;-90
2023/06/12 05:54:41;;;;;;;6.50;3.20;;;;;;;15.09;100.00;100344.80;106123;1256;63175;-88
2023/06/12 05:57:09;;;;;;;8.70;4.00;;;;;;;15.14;100.00;100349.38;106059;1253;59131;-88
2023/06/12 05:59:39;;;;;;;9.50;3.30;;;;;;;15.20;100.00;100353.98;105942;1251;73528;-86
2023/06/12 06:02:07;;;;;;;4.60;3.00;;;;;;;15.24;100.00;100354.17;106199;1250;63852;-86
2023/06/12 06:04:35;;;;;;;6.10;2.70;;;;;;;15.28;100.00;100355.09;109672;1250;72990;-84
2023/06/12 06:07:03;;;;;;;8.80;5.10;;;;;;;15.30;100.00;100359.45;109506;1251;60771;-86
2023/06/12 06:09:44;;;;;;;8.20;3.30;;;;;;;15.31;100.00;100361.51;109714;1250;57830;-84
2023/06/12 06:12:12;;;;;;;3.10;2.40;;;;;;;15.32;100.00;100364.04;109700;1250;73129;-87
2023/06/12 06:14:39;;;;;;;4.90;2.10;;;;;;;15.34;100.00;100361.92;109723;1250;64045;-87
2023/06/12 06:17:07;;;;;;;7.60;2.10;;;;;;;15.37;100.00;100357.65;109717;1253;72702;-86
2023/06/12 06:19:37;;;;;;;2.70;1.40;;;;;;;15.40;100.00;100364.49;109814;1251;60412;-86
2023/06/12 06:22:05;;;;;;;1.80;1.50;;;;;;;15.41;100.00;100360.98;109851;1250;58731;-85
2023/06/12 06:24:33;;;;;;;3.70;1.60;;;;;;;15.42;100.00;100362.55;110060;1250;72155;-83
2023/06/12 06:27:02;;;;;;;2.40;2.20;;;;;;;15.42;100.00;100362.35;109932;1250;62414;-87
2023/06/12 06:29:29;;;;;;;3.20;1.60;;;;;;;15.43;100.00;100360.47;109646;1250;71443;-87
2023/06/12 06:31:57;;;;;;;2.60;1.20;;;;;;;15.46;100.00;100363.77;109633;1250;61970;-86
2023/06/12 06:34:26;;;;;;;4.10;1.30;;;;;;;15.48;100.00;100364.46;109656;1250;58348;-90
2023/06/12 06:36:53;;;;;;;2.20;1.40;;;;;;;15.52;100.00;100364.09;109558;1250;71863;-87
2023/06/12 06:39:21;;;;;;;1.10;1.00;;;;;;;15.57;100.00;100365.84;109606;1250;63801;-87
2023/06/12 06:41:49;;;;;;;1.80;1.10;;;;;;;15.60;100.00;100367.71;109628;1250;75014;-86
2023/06/12 06:44:17;;;;;;;3.20;1.00;;;;;;;15.63;100.00;100362.34;109647;1251;61660;-86
2023/06/12 06:46:46;;;;;;;1.10;1.00;;;;;;;15.65;100.00;100364.30;109608;1250;60137;-85
2023/06/12 06:49:14;;;;;;;1.30;1.20;;;;;;;15.68;100.00;100364.19;109660;1250;72063;-84
2023/06/12 06:51:43;;;;;;;2.00;1.20;;;;;;;15.73;100.00;100367.64;109640;1250;63830;-86
2023/06/12 06:54:11;;;;;;;2.00;0.90;;;;;;;15.77;100.00;100374.02;109665;1250;71364;-86
2023/06/12 06:56:38;;;;;;;2.00;1.60;;;;;;;15.78;100.00;100373.27;109605;1251;64088;-85
2023/06/12 06:59:06;;;;;;;3.20;1.40;;;;;;;15.78;100.00;100373.94;109682;1250;57892;-85
2023/06/12 07:01:37;;;;;;;1.60;1.40;;;;;;;15.79;100.00;100377.93;109716;1250;71826;-88
2023/06/12 07:04:06;;;;;;;2.50;1.50;;;;;;;15.79;100.00;100383.05;109621;1250;62435;-86
2023/06/12 07:06:33;;;;;;;1.80;1.70;;;;;;;15.78;100.00;100387.18;109646;1253;72783;-87
2023/06/12 07:09:01;;;;;;;1.20;1.10;;;;;;;15.78;100.00;100383.47;109622;1250;62835;-85
2023/06/12 07:11:29;;;;;;;3.80;1.20;;;;;;;15.80;100.00;100382.95;109624;1250;60018;-87
2023/06/12 07:13:57;;;;;;;2.50;1.00;;;;;;;15.81;100.00;100387.60;109703;1250;72860;-86
2023/06/12 07:16:26;;;;;;;2.00;1.50;;;;;;;15.84;100.00;100394.46;109675;1250;63701;-86
2023/06/12 07:18:54;;;;;;;3.30;1.80;;;;;;;15.85;100.00;100395.23;109679;1250;71155;-87
2023/06/12 07:21:21;;;;;;;1.80;1.40;;;;;;;15.86;100.00;100398.28;109577;1250;62798;-86
2023/06/12 07:23:51;;;;;;;3.50;1.60;;;;;;;15.88;100.00;100398.45;109649;1250;59445;-86
2023/06/12 07:26:19;;;;;;;2.30;1.50;;;;;;;15.91;100.00;100403.52;109646;1250;71885;-87
2023/06/12 07:28:58;;;;;;;2.20;1.40;;;;;;;15.92;100.00;100405.00;109588;1250;64029;-88
2023/06/12 07:31:28;;;;;;;4.30;1.50;;;;;;;15.91;100.00;100411.77;109668;1250;71334;-87
2023/06/12 07:33:56;;;;;;;2.60;1.80;;;;;;;15.90;100.00;100411.36;109683;1250;62193;-86
2023/06/12 07:36:24;;;;;;;4.80;1.50;;;;;;;15.90;100.00;100410.27;109675;1250;58813;-86
2023/06/12 07:38:52;;;;;;;5.70;2.00;;;;;;;15.89;100.00;100413.55;109485;1250;73953;-88
2023/06/12 07:41:21;;;;;;;3.30;1.50;;;;;;;15.87;100.00;100417.10;109644;1250;63920;-87
2023/06/12 07:43:48;;;;;;;1.80;1.70;;;;;;;15.84;100.00;100416.95;109648;1250;71918;-88
2023/06/12 07:46:16;;;;;;;3.20;1.60;;;;;;;15.85;100.00;100421.13;109680;1251;60018;-87
2023/06/12 07:48:45;;;;;;;1.60;1.30;;;;;;;15.87;100.00;100421.67;109637;1250;60244;-86
2023/06/12 07:51:13;;;;;;;3.40;2.20;;;;;;;15.89;100.00;100426.10;109707;1250;72222;-86
2023/06/12 07:53:41;;;;;;;2.20;1.60;;;;;;;15.90;100.00;100429.37;109721;1250;62975;-87
2023/06/12 07:56:16;;;;;;;3.40;1.80;;;;;;;15.91;100.00;100432.41;109658;1250;71596;-87
2023/06/12 07:58:46;;;;;;;2.70;2.00;;;;;;;15.93;100.00;100435.05;109685;1250;60799;-87
2023/06/12 08:01:15;;;;;;;4.50;1.70;;;;;;;15.96;100.00;100434.33;109684;1250;60460;-87
2023/06/12 08:03:45;;;;;;;2.00;1.10;;;;;;;15.99;100.00;100436.36;109617;1250;73358;-87
2023/06/12 08:06:15;;;;;;;3.80;2.00;;;;;;;16.01;100.00;100433.17;109480;1250;62330;-86
2023/06/12 08:08:45;;;;;;;2.30;1.70;;;;;;;16.01;100.00;100440.76;109588;1250;71466;-86
2023/06/12 08:11:13;;;;;;;2.60;2.00;;;;;;;16.00;100.00;100440.87;109628;1251;60387;-87
2023/06/12 08:13:43;;;;;;;5.00;2.00;;;;;;;16.00;100.00;100436.80;109662;1250;59145;-88
2023/06/12 08:16:12;;;;;;;3.10;1.90;;;;;;;16.00;100.00;100438.33;109740;1250;71499;-84
2023/06/12 08:18:43;;;;;;;5.50;3.40;;;;;;;16.01;100.00;100437.89;109672;1250;62516;-87
2023/06/12 08:21:11;;;;;;;6.40;2.30;;;;;;;16.04;100.00;100435.38;109664;1250;71148;-86
2023/06/12 08:23:41;;;;;;;4.30;2.00;;;;;;;16.04;100.00;100432.58;109596;1251;60503;-87
2023/06/12 08:26:09;;;;;;;6.00;2.00;;;;;;;16.03;100.00;100436.88;109648;1250;60177;-85
2023/06/12 08:31:18;;;;;;;2.90;2.50;;;;;;;16.08;100.00;100441.67;105555;1290;612800;-86
2023/06/12 08:33:47;;;;;;;7.20;3.30;;;;;;;16.10;100.00;100444.76;106428;1266;62010;-87
2023/06/12 08:36:14;;;;;;;9.20;3.10;;;;;;;16.14;100.00;100447.23;106677;1267;59263;-85
2023/06/12 08:38:41;;;;;;;5.20;3.20;;;;;;;16.14;100.00;100444.35;105108;1266;73017;-85
2023/06/12 08:41:09;;;;;;;5.10;3.40;;;;;;;16.16;100.00;100449.32;105217;1266;64183;-85
2023/06/12 08:43:37;;;;;;;7.10;4.10;;;;;;;16.19;100.00;100453.28;105168;1263;788745;-86
2023/06/12 08:46:06;;;;;;;8.60;3.60;;;;;;;16.22;100.00;100455.20;105465;1270;60489;-87
2023/06/12 08:48:35;;;;;;;7.50;3.90;;;;;;;16.23;100.00;100455.27;105257;1263;59442;-88
2023/06/12 08:51:04;;;;;;;6.00;3.80;;;;;;;16.26;100.00;100461.04;105847;1261;70382;-86
2023/06/12 08:53:33;;;;;;;7.00;4.60;;;;;;;16.26;100.00;100460.64;106844;1256;62790;-86
2023/06/12 08:56:00;;;;;;;11.20;5.60;;;;;;;16.29;100.00;100456.12;106740;1256;71947;-83
2023/06/12 08:58:28;;;;;;;10.40;5.40;;;;;;;16.35;100.00;100458.59;105585;1256;61857;-88
2023/06/12 09:00:56;;;;;;;10.40;7.60;;;;;;;16.39;100.00;100460.77;105758;1256;59552;-86
2023/06/12 09:03:25;;;;;;;11.30;4.50;;;;;;;16.41;100.00;100460.61;105442;1256;73112;-86
2023/06/12 09:05:52;;;;;;;7.30;3.90;;;;;;;16.39;100.00;100457.21;105632;1256;62518;-87
2023/06/12 09:08:20;;;;;;;5.30;4.50;;;;;;;16.39;100.00;100462.15;105788;1256;72761;-90
2023/06/12 09:10:47;;;;;;;10.30;5.10;;;;;;;16.40;100.00;100460.87;105748;1256;61922;-86
2023/06/12 09:13:14;;;;;;;8.70;4.60;;;;;;;16.43;100.00;100459.02;105645;1256;59685;-87
2023/06/12 09:15:49;;;;;;;13.30;5.90;;;;;;;16.45;100.00;100463.80;105526;1260;71587;-87
2023/06/12 09:18:16;;;;;;;10.20;5.00;;;;;;;16.47;100.00;100461.64;105593;1255;63991;-86
2023/06/12 09:20:43;;;;;;;7.10;4.90;;;;;;;16.49;100.00;100463.77;105365;1256;72660;-85
2023/06/12 09:23:11;;;;;;;9.70;4.70;;;;;;;16.50;100.00;100460.71;105726;1253;61915;-87
2023/06/12 09:25:40;;;;;;;8.70;4.20;;;;;;;16.52;100.00;100458.41;106583;1256;59536;-83
2023/06/12 09:28:09;;;;;;;6.70;4.00;;;;;;;16.54;100.00;100461.20;106310;1256;72883;-85
2023/06/12 09:30:40;;;;;;;7.50;4.20;;;;;;;16.56;100.00;100461.53;105988;1252;63741;-86
2023/06/12 09:33:08;;;;;;;8.60;4.50;;;;;;;16.57;100.00;100462.52;105899;1252;71477;-86
2023/06/12 09:35:52;;;;;;;7.10;3.80;;;;;;;16.59;100.00;100464.08;105685;1253;60681;-86
2023/06/12 09:38:33;;;;;;;32.10;14.10;;;;;;;16.62;100.00;100461.71;106001;1251;60961;-85
2023/06/12 09:41:03;;;;;;;9.70;5.50;;;;;;;16.66;100.00;100463.52;105911;1253;71802;-87
2023/06/12 09:43:31;;;;;;;6.20;3.70;;;;;;;16.68;100.00;100460.35;106186;1255;62883;-85
2023/06/12 09:45:58;;;;;;;6.30;3.80;;;;;;;16.69;100.00;100463.38;106007;1253;71716;-85
2023/06/12 09:48:36;;;;;;;8.60;4.50;;;;;;;16.69;100.00;100466.05;106521;1252;59641;-86
2023/06/12 09:51:09;;;;;;;5.50;3.70;;;;;;;16.70;100.00;100465.23;107927;1252;60611;-85
2023/06/12 09:53:38;;;;;;;10.70;4.20;;;;;;;16.70;100.00;100464.94;107724;1251;70636;-81
2023/06/12 09:56:06;;;;;;;6.10;3.60;;;;;;;16.68;100.00;100460.70;109154;1252;62638;-82
2023/06/12 09:58:38;;;;;;;6.70;3.80;;;;;;;16.66;100.00;100460.67;108962;1251;71524;-83
2023/06/12 10:01:06;;;;;;;6.10;3.90;;;;;;;16.66;100.00;100463.02;106960;1255;60949;-86
2023/06/12 10:03:38;;;;;;;6.30;4.20;;;;;;;16.65;100.00;100462.19;106379;1255;59645;-85
2023/06/12 10:06:08;;;;;;;8.20;5.40;;;;;;;16.66;100.00;100466.46;106434;1253;73033;-85
2023/06/12 10:08:36;;;;;;;6.60;3.80;;;;;;;16.66;100.00;100466.50;106513;1255;63901;-86
2023/06/12 10:11:04;;;;;;;8.70;3.80;;;;;;;16.68;100.00;100472.86;105940;1253;71829;-86
2023/06/12 10:13:32;;;;;;;5.40;3.80;;;;;;;16.68;100.00;100471.80;105803;1255;60838;-85
2023/06/12 10:15:59;;;;;;;7.20;3.40;;;;;;;16.68;100.00;100471.60;105699;1251;60026;-85
2023/06/12 10:18:28;;;;;;;5.60;3.90;;;;;;;16.71;100.00;100472.42;105798;1259;72777;-85
2023/06/12 10:20:58;;;;;;;4.70;3.90;;;;;;;16.72;100.00;100473.35;105872;1254;63784;-85
2023/06/12 10:23:24;;;;;;;5.50;3.70;;;;;;;16.71;100.00;100475.42;105848;1257;73846;-84
2023/06/12 10:25:51;;;;;;;9.00;3.70;;;;;;;16.71;100.00;100472.57;106399;1253;61744;-87
2023/06/12 10:28:18;;;;;;;10.40;3.90;;;;;;;16.76;100.00;100478.65;105948;1253;60587;-86
2023/06/12 10:31:13;;;;;;;6.90;4.50;;;;;;;16.80;100.00;100477.30;106217;1255;72755;-86
2023/06/12 10:34:00;;;;;;;7.80;4.60;;;;;;;16.83;100.00;100476.70;106707;1253;63722;-86
2023/06/12 10:36:44;;;;;;;6.90;4.40;;;;;;;16.84;100.00;100472.02;106345;1255;72849;-84
2023/06/12 10:39:16;;;;;;;4.70;3.50;;;;;;;16.85;100.00;100475.96;105916;1257;60680;-84
2023/06/12 10:41:56;;;;;;;7.30;5.20;;;;;;;16.86;100.00;100476.23;106231;1253;59537;-86
2023/06/12 10:44:38;;;;;;;10.30;4.30;;;;;;;16.87;100.00;100475.50;106089;1252;73061;-85
2023/06/12 10:47:06;;;;;;;6.80;3.60;;;;;;;16.91;100.00;100480.39;105884;1251;62816;-84
2023/06/12 10:49:56;;;;;;;9.50;4.50;;;;;;;16.96;100.00;100477.62;105853;1253;73114;-85
2023/06/12 10:52:23;;;;;;;5.10;4.00;;;;;;;17.04;100.00;100478.05;105861;1253;62086;-86
2023/06/12 10:55:13;;;;;;;13.10;5.70;;;;;;;17.08;100.00;100481.22;105939;1252;59628;-85
2023/06/12 10:58:00;;;;;;;8.20;3.90;;;;;;;17.14;100.00;100483.66;105951;1257;71897;-87
2023/06/12 11:00:40;;;;;;;6.00;4.10;;;;;;;17.20;100.00;100485.59;105940;1257;63757;-85
2023/06/12 11:03:12;;;;;;;3.70;3.30;;;;;;;17.22;100.00;100486.82;105898;1253;72587;-87
2023/06/12 11:05:47;;;;;;;4.40;3.70;;;;;;;17.22;100.00;100488.08;105785;1253;61922;-89
2023/06/12 11:08:15;;;;;;;5.70;3.00;;;;;;;17.23;100.00;100491.14;106013;1255;60475;-84
2023/06/12 11:10:42;;;;;;;6.60;4.50;;;;;;;17.24;100.00;100486.33;106615;1251;73175;-86
2023/06/12 11:13:09;;;;;;;6.10;3.80;;;;;;;17.26;100.00;100480.59;106069;1251;63948;-86
2023/06/12 11:15:47;;;;;;;5.00;3.10;;;;;;;17.32;100.00;100480.94;105907;1255;72847;-85
2023/06/12 11:18:14;;;;;;;4.60;3.30;;;;;;;17.37;100.00;100480.52;106039;1251;60665;-84
2023/06/12 11:20:42;;;;;;;6.90;3.60;;;;;;;17.38;100.00;100477.02;105985;1251;60211;-87
2023/06/12 11:23:10;;;;;;;6.40;3.10;;;;;;;17.41;100.00;100481.58;106006;1256;72895;-86
2023/06/12 11:25:45;;;;;;;4.00;3.70;;;;;;;17.44;100.00;100483.05;106029;1255;63893;-83